Time;durP1;ratioP1;P1;durP2;ratioP2;P2;SDS_P1;SDS_P2;PMS_P1;PMS_P2;Temp;Humidity;BMP_temperature;BMP_pressure;BME280_temperature;BME280_humidity;BME280_pressure;Samples;Min_cycle;Max_cycle;Signal;HPM_P1;HPM_P2
2021/12/06 00:01:39;;;;;;;7.17;6.47;;;;;;;;;;4999208;28;20172;-62
2021/12/06 00:04:10;;;;;;;9.13;6.67;;;;;;;;;;5000007;28;20251;-61
2021/12/06 00:06:37;;;;;;;10.30;6.87;;;;;;;;;;4999558;28;20262;-61
2021/12/06 00:09:05;;;;;;;9.33;7.17;;;;;;;;;;4998085;28;20184;-62
2021/12/06 00:11:34;;;;;;;11.83;7.10;;;;;;;;;;4999419;28;20189;-62
2021/12/06 00:14:01;;;;;;;13.23;6.97;;;;;;;;;;4999176;28;20213;-62
2021/12/06 00:16:27;;;;;;;10.03;6.70;;;;;;;;;;4999267;28;20200;-65
2021/12/06 00:18:53;;;;;;;7.80;6.67;;;;;;;;;;4999665;28;20187;-61
2021/12/06 00:21:20;;;;;;;9.27;7.00;;;;;;;;;;4997864;28;20693;-61
2021/12/06 00:23:46;;;;;;;9.63;7.10;;;;;;;;;;4999399;28;20203;-61
2021/12/06 00:26:12;;;;;;;13.80;7.30;;;;;;;;;;4999297;28;20181;-62
2021/12/06 00:28:40;;;;;;;10.37;7.30;;;;;;;;;;4999572;28;20190;-60
2021/12/06 00:31:07;;;;;;;10.73;7.57;;;;;;;;;;4999427;28;20241;-60
2021/12/06 00:33:33;;;;;;;10.07;7.80;;;;;;;;;;4998705;28;20451;-61
2021/12/06 00:36:04;;;;;;;9.57;7.53;;;;;;;;;;4998856;28;20176;-61
2021/12/06 00:38:34;;;;;;;10.50;7.53;;;;;;;;;;4997777;28;20178;-60
2021/12/06 00:41:01;;;;;;;9.00;7.80;;;;;;;;;;4998830;28;20435;-61
2021/12/06 00:43:27;;;;;;;10.37;7.63;;;;;;;;;;4999180;28;20228;-62
2021/12/06 00:45:53;;;;;;;10.87;7.80;;;;;;;;;;4998551;28;20180;-61
2021/12/06 00:48:19;;;;;;;14.07;8.40;;;;;;;;;;4998313;28;20536;-62
2021/12/06 00:50:45;;;;;;;11.17;8.13;;;;;;;;;;4998886;28;20303;-63
2021/12/06 00:53:11;;;;;;;10.63;8.03;;;;;;;;;;4998468;28;20215;-61
2021/12/06 00:55:37;;;;;;;10.47;8.40;;;;;;;;;;4996743;28;20198;-61
2021/12/06 00:58:04;;;;;;;11.17;7.70;;;;;;;;;;4998278;28;20209;-61
2021/12/06 01:00:39;;;;;;;10.07;8.03;;;;;;;;;;4997964;28;20198;-62
2021/12/06 01:03:07;;;;;;;8.40;7.57;;;;;;;;;;4998100;28;20192;-60
2021/12/06 01:05:33;;;;;;;10.83;8.00;;;;;;;;;;4997193;28;20423;-62
2021/12/06 01:07:59;;;;;;;8.70;7.77;;;;;;;;;;4998010;28;20420;-60
2021/12/06 01:10:27;;;;;;;10.17;8.07;;;;;;;;;;4996405;28;20223;-60
2021/12/06 01:12:53;;;;;;;9.67;8.00;;;;;;;;;;4998514;28;20261;-62
2021/12/06 01:15:19;;;;;;;12.30;8.47;;;;;;;;;;4997612;28;20787;-61
2021/12/06 01:17:46;;;;;;;11.47;8.87;;;;;;;;;;4996819;28;20203;-60
2021/12/06 01:20:18;;;;;;;12.03;8.50;;;;;;;;;;4998747;28;20183;-61
2021/12/06 01:22:50;;;;;;;10.07;8.97;;;;;;;;;;4996419;28;20534;-59
2021/12/06 01:25:28;;;;;;;14.40;9.67;;;;;;;;;;4997255;28;20169;-62
2021/12/06 01:41:27;;;;;;;13.00;9.90;;;;;;;;;;4997374;28;20395;-64
2021/12/06 01:44:04;;;;;;;11.83;10.43;;;;;;;;;;4997774;28;20435;-60
2021/12/06 01:46:31;;;;;;;13.73;10.00;;;;;;;;;;4997851;28;20834;-61
2021/12/06 01:48:57;;;;;;;13.77;10.10;;;;;;;;;;4997707;28;20432;-61
2021/12/06 01:51:23;;;;;;;16.33;11.50;;;;;;;;;;4997755;28;20458;-61
2021/12/06 01:53:49;;;;;;;14.50;11.50;;;;;;;;;;4997702;28;20222;-61
2021/12/06 01:56:15;;;;;;;20.37;13.43;;;;;;;;;;4997678;28;20291;-61
2021/12/06 01:58:42;;;;;;;18.97;12.20;;;;;;;;;;4997109;28;20176;-61
2021/12/06 02:01:08;;;;;;;16.20;13.50;;;;;;;;;;4997278;28;20176;-60
2021/12/06 02:03:34;;;;;;;16.80;12.57;;;;;;;;;;4995863;28;20447;-59
2021/12/06 02:06:00;;;;;;;18.93;13.60;;;;;;;;;;4997513;28;20177;-61
2021/12/06 02:08:26;;;;;;;17.40;13.57;;;;;;;;;;5026550;23;20423;-63
2021/12/06 02:10:59;;;;;;;17.13;13.83;;;;;;;;;;5014392;28;20383;-64
2021/12/06 02:13:28;;;;;;;17.50;14.17;;;;;;;;;;5017754;28;20243;-64
2021/12/06 02:15:55;;;;;;;17.33;14.07;;;;;;;;;;5017119;28;20422;-64
2021/12/06 02:19:01;;;;;;;18.10;14.47;;;;;;;;;;5017385;28;20506;-64
2021/12/06 02:21:13;;;;;;;17.73;14.93;;;;;;;;;;5014140;28;20481;-65
2021/12/06 02:23:39;;;;;;;20.90;16.27;;;;;;;;;;5017661;28;20403;-64
2021/12/06 02:26:06;;;;;;;19.77;15.63;;;;;;;;;;5017293;28;20180;-64
2021/12/06 02:28:32;;;;;;;25.20;15.93;;;;;;;;;;5017703;28;20433;-64
2021/12/06 02:30:58;;;;;;;23.30;17.37;;;;;;;;;;4999420;28;20878;-64
2021/12/06 02:33:24;;;;;;;21.67;17.73;;;;;;;;;;5017664;28;20407;-64
2021/12/06 02:35:52;;;;;;;22.23;17.53;;;;;;;;;;4999440;28;20942;-64
2021/12/06 02:38:18;;;;;;;25.57;19.07;;;;;;;;;;5017582;28;20453;-64
2021/12/06 02:40:44;;;;;;;18.97;16.57;;;;;;;;;;5017153;28;20411;-65
2021/12/06 02:43:11;;;;;;;19.37;17.20;;;;;;;;;;5017637;28;20172;-64
2021/12/06 02:45:38;;;;;;;21.87;17.30;;;;;;;;;;5017108;28;20785;-64
2021/12/06 02:48:05;;;;;;;23.97;17.30;;;;;;;;;;5016838;28;20419;-64
2021/12/06 02:50:34;;;;;;;21.77;18.80;;;;;;;;;;4998995;28;20447;-64
2021/12/06 02:53:00;;;;;;;24.53;18.87;;;;;;;;;;5016703;28;20419;-64
2021/12/06 02:55:36;;;;;;;25.00;18.47;;;;;;;;;;5016751;28;20494;-64
2021/12/06 02:58:21;;;;;;;22.80;16.87;;;;;;;;;;5016879;28;20451;-64
2021/12/06 03:00:49;;;;;;;20.30;15.90;;;;;;;;;;4999063;28;20425;-66
2021/12/06 03:03:19;;;;;;;19.33;16.70;;;;;;;;;;5016708;28;20899;-64
2021/12/06 03:05:46;;;;;;;22.77;17.53;;;;;;;;;;5016905;28;20418;-64
2021/12/06 03:08:12;;;;;;;24.60;18.73;;;;;;;;;;5020613;28;20407;-64
2021/12/06 03:10:39;;;;;;;26.83;21.23;;;;;;;;;;5032997;28;20415;-65
2021/12/06 03:13:05;;;;;;;25.63;20.77;;;;;;;;;;5037105;28;20251;-64
2021/12/06 03:15:31;;;;;;;30.83;20.97;;;;;;;;;;5019948;28;20426;-64
2021/12/06 03:17:57;;;;;;;29.50;22.60;;;;;;;;;;5021932;28;20461;-64
2021/12/06 03:20:24;;;;;;;26.30;20.20;;;;;;;;;;5017593;28;20945;-64
2021/12/06 03:22:50;;;;;;;31.57;21.80;;;;;;;;;;4998941;28;20415;-65
2021/12/06 03:25:17;;;;;;;25.90;22.27;;;;;;;;;;5016595;28;20411;-64
2021/12/06 03:27:43;;;;;;;31.00;22.47;;;;;;;;;;4998966;28;20423;-64
2021/12/06 03:30:12;;;;;;;41.30;27.60;;;;;;;;;;5016301;28;20483;-64
2021/12/06 03:32:38;;;;;;;30.87;22.57;;;;;;;;;;5016496;28;20406;-64
2021/12/06 03:35:05;;;;;;;28.67;21.80;;;;;;;;;;5016759;28;20453;-64
2021/12/06 03:37:31;;;;;;;28.20;21.23;;;;;;;;;;5016420;28;20461;-65
2021/12/06 03:39:57;;;;;;;29.47;21.13;;;;;;;;;;5016946;28;20815;-64
2021/12/06 03:42:24;;;;;;;28.27;19.90;;;;;;;;;;5017316;28;20175;-65
2021/12/06 03:44:51;;;;;;;27.43;20.23;;;;;;;;;;5017301;28;20524;-64
2021/12/06 03:47:22;;;;;;;28.73;20.97;;;;;;;;;;5017127;28;20785;-65
2021/12/06 03:49:48;;;;;;;26.83;21.30;;;;;;;;;;5018024;28;20431;-65
2021/12/06 03:52:14;;;;;;;31.43;22.03;;;;;;;;;;5000268;28;20989;-65
2021/12/06 03:54:41;;;;;;;28.77;23.03;;;;;;;;;;4999917;28;20180;-65
2021/12/06 03:57:07;;;;;;;32.07;23.60;;;;;;;;;;5017282;28;20462;-64
2021/12/06 03:59:33;;;;;;;28.93;23.03;;;;;;;;;;4999052;28;20969;-64
2021/12/06 04:01:59;;;;;;;32.17;24.30;;;;;;;;;;5017233;28;20415;-64
2021/12/06 04:04:25;;;;;;;31.00;24.63;;;;;;;;;;4999969;28;20414;-64
2021/12/06 04:06:51;;;;;;;33.80;24.33;;;;;;;;;;5017750;28;20458;-64
2021/12/06 04:09:17;;;;;;;32.80;23.80;;;;;;;;;;5017079;28;20234;-64
2021/12/06 04:11:43;;;;;;;32.97;23.90;;;;;;;;;;5017510;28;20578;-64
2021/12/06 04:14:10;;;;;;;38.63;25.37;;;;;;;;;;4999757;28;20518;-65
2021/12/06 04:16:36;;;;;;;32.13;24.17;;;;;;;;;;5017788;28;20462;-64
2021/12/06 04:19:04;;;;;;;28.83;23.63;;;;;;;;;;5018234;28;20438;-64
2021/12/06 04:21:29;;;;;;;33.43;25.00;;;;;;;;;;4999939;28;20801;-65
2021/12/06 04:23:56;;;;;;;31.93;24.23;;;;;;;;;;5016367;28;20414;-64
2021/12/06 04:26:22;;;;;;;34.50;25.67;;;;;;;;;;5015740;28;20191;-65
2021/12/06 04:28:57;;;;;;;35.23;24.77;;;;;;;;;;5016009;28;20585;-64
2021/12/06 04:31:23;;;;;;;34.07;25.07;;;;;;;;;;4998360;28;20423;-64
2021/12/06 04:33:49;;;;;;;35.43;26.00;;;;;;;;;;4997751;28;20569;-65
2021/12/06 04:36:15;;;;;;;39.77;26.70;;;;;;;;;;4998656;28;20275;-64
2021/12/06 04:38:41;;;;;;;57.07;37.83;;;;;;;;;;5016719;28;20450;-64
2021/12/06 04:41:07;;;;;;;57.20;39.40;;;;;;;;;;5016616;28;20907;-64
2021/12/06 04:43:33;;;;;;;49.90;31.83;;;;;;;;;;5016046;28;20179;-65
2021/12/06 04:45:59;;;;;;;44.60;32.33;;;;;;;;;;5015564;28;20478;-65
2021/12/06 04:48:25;;;;;;;53.63;38.40;;;;;;;;;;5015490;28;20589;-64
2021/12/06 04:50:51;;;;;;;50.27;35.87;;;;;;;;;;4997750;28;20415;-65
2021/12/06 04:53:19;;;;;;;44.00;31.63;;;;;;;;;;4997786;28;20453;-64
2021/12/06 04:55:48;;;;;;;48.00;32.63;;;;;;;;;;5015106;28;20180;-64
2021/12/06 04:58:16;;;;;;;46.83;32.27;;;;;;;;;;4997376;28;20461;-64
2021/12/06 05:00:46;;;;;;;42.20;30.60;;;;;;;;;;5015665;28;20411;-65
2021/12/06 05:03:12;;;;;;;46.27;32.53;;;;;;;;;;5015683;28;20388;-64
2021/12/06 05:05:46;;;;;;;47.50;31.60;;;;;;;;;;5014991;28;20407;-64
2021/12/06 05:08:17;;;;;;;46.67;30.80;;;;;;;;;;5014824;28;20429;-64
2021/12/06 05:10:43;;;;;;;46.83;30.93;;;;;;;;;;5014992;28;20840;-64
2021/12/06 05:13:09;;;;;;;48.00;32.80;;;;;;;;;;5014951;28;20446;-65
2021/12/06 05:15:35;;;;;;;44.67;30.97;;;;;;;;;;5014840;28;20785;-63
2021/12/06 05:18:02;;;;;;;44.20;31.77;;;;;;;;;;4996813;28;20513;-64
2021/12/06 05:20:28;;;;;;;45.53;32.73;;;;;;;;;;4996969;28;20787;-64
2021/12/06 05:22:54;;;;;;;50.67;32.10;;;;;;;;;;4996772;28;20419;-64
2021/12/06 05:25:23;;;;;;;42.93;31.47;;;;;;;;;;4996791;28;20184;-64
2021/12/06 05:27:49;;;;;;;45.27;32.57;;;;;;;;;;4996979;28;20542;-64
2021/12/06 05:30:16;;;;;;;43.00;30.50;;;;;;;;;;5014247;28;20467;-64
2021/12/06 05:32:43;;;;;;;39.53;30.03;;;;;;;;;;4996866;28;20434;-64
2021/12/06 05:35:09;;;;;;;46.50;31.70;;;;;;;;;;4996770;28;20496;-64
2021/12/06 05:37:38;;;;;;;49.87;31.73;;;;;;;;;;4996502;28;20465;-64
2021/12/06 05:40:05;;;;;;;48.47;33.77;;;;;;;;;;5014343;28;20460;-64
2021/12/06 05:42:31;;;;;;;52.87;36.60;;;;;;;;;;5014814;28;20407;-64
2021/12/06 05:44:57;;;;;;;64.47;38.73;;;;;;;;;;5014465;28;20403;-65
2021/12/06 05:47:23;;;;;;;65.77;40.83;;;;;;;;;;5014506;28;20766;-64
2021/12/06 05:49:49;;;;;;;80.83;43.47;;;;;;;;;;5014269;28;20206;-65
2021/12/06 05:52:15;;;;;;;68.13;41.53;;;;;;;;;;5014338;28;20785;-64
2021/12/06 05:54:41;;;;;;;66.03;40.50;;;;;;;;;;5014254;28;20192;-65
2021/12/06 05:57:08;;;;;;;66.73;42.27;;;;;;;;;;5014131;28;20824;-65
2021/12/06 05:59:34;;;;;;;65.13;41.43;;;;;;;;;;5014152;28;20432;-64
2021/12/06 06:02:00;;;;;;;59.00;39.07;;;;;;;;;;5013932;28;20771;-64
2021/12/06 06:04:26;;;;;;;64.10;39.50;;;;;;;;;;4996507;28;20218;-64
2021/12/06 06:06:52;;;;;;;65.80;42.43;;;;;;;;;;5014354;28;20609;-65
2021/12/06 06:09:19;;;;;;;59.70;39.00;;;;;;;;;;4996415;28;20443;-64
2021/12/06 06:11:45;;;;;;;55.93;37.87;;;;;;;;;;5014410;28;20427;-65
2021/12/06 06:14:11;;;;;;;58.37;37.17;;;;;;;;;;5013959;28;20449;-64
2021/12/06 06:16:47;;;;;;;58.17;37.67;;;;;;;;;;5014002;28;20454;-65
2021/12/06 06:19:13;;;;;;;66.30;38.67;;;;;;;;;;5014212;28;20489;-64
2021/12/06 06:21:39;;;;;;;53.93;36.73;;;;;;;;;;4996536;28;20446;-64
2021/12/06 06:24:06;;;;;;;53.00;36.03;;;;;;;;;;5013920;28;20432;-64
2021/12/06 06:26:31;;;;;;;55.70;35.93;;;;;;;;;;4996158;28;20443;-64
2021/12/06 06:28:57;;;;;;;62.53;37.80;;;;;;;;;;5013710;28;20931;-63
2021/12/06 06:31:23;;;;;;;58.27;37.67;;;;;;;;;;5013901;28;20263;-64
2021/12/06 06:33:49;;;;;;;58.53;37.07;;;;;;;;;;4996207;28;20182;-64
2021/12/06 06:36:16;;;;;;;57.37;37.87;;;;;;;;;;5013784;28;20667;-64
2021/12/06 06:38:42;;;;;;;65.83;40.47;;;;;;;;;;5013886;28;20569;-64
2021/12/06 06:41:08;;;;;;;62.63;41.77;;;;;;;;;;5014630;28;20895;-64
2021/12/06 06:43:35;;;;;;;65.77;43.93;;;;;;;;;;4997078;28;20216;-64
2021/12/06 06:46:01;;;;;;;71.00;44.90;;;;;;;;;;4998252;28;20410;-65
2021/12/06 06:48:27;;;;;;;67.97;44.03;;;;;;;;;;5014484;28;20961;-64
2021/12/06 06:50:53;;;;;;;61.07;42.10;;;;;;;;;;4996213;28;20419;-65
2021/12/06 06:53:19;;;;;;;68.73;45.73;;;;;;;;;;5013735;28;20182;-64
2021/12/06 06:55:45;;;;;;;66.90;44.23;;;;;;;;;;4996116;28;20433;-64
2021/12/06 06:58:11;;;;;;;69.93;45.20;;;;;;;;;;5016490;28;20466;-63
2021/12/06 07:00:41;;;;;;;72.93;47.30;;;;;;;;;;5017010;28;20857;-64
2021/12/06 07:03:08;;;;;;;68.50;46.60;;;;;;;;;;5017130;28;20641;-64
2021/12/06 07:05:34;;;;;;;69.60;49.20;;;;;;;;;;4999615;28;20423;-65
2021/12/06 07:08:00;;;;;;;70.27;50.10;;;;;;;;;;5017235;28;20564;-64
2021/12/06 07:10:26;;;;;;;67.53;45.60;;;;;;;;;;5016965;28;20446;-64
2021/12/06 07:12:53;;;;;;;73.17;51.17;;;;;;;;;;5017081;28;20784;-65
2021/12/06 07:15:21;;;;;;;76.27;55.07;;;;;;;;;;5016977;28;20258;-64
2021/12/06 07:17:47;;;;;;;97.47;63.10;;;;;;;;;;5017000;28;20508;-64
2021/12/06 07:20:14;;;;;;;77.50;53.23;;;;;;;;;;5017078;28;20879;-64
2021/12/06 07:22:40;;;;;;;81.60;55.20;;;;;;;;;;5017045;28;20494;-64
2021/12/06 07:25:07;;;;;;;83.23;54.37;;;;;;;;;;5016938;28;20413;-64
2021/12/06 07:27:33;;;;;;;76.23;54.07;;;;;;;;;;4999156;28;20493;-65
2021/12/06 07:30:00;;;;;;;77.30;51.47;;;;;;;;;;5016900;28;20927;-64
2021/12/06 07:32:26;;;;;;;82.30;53.87;;;;;;;;;;5017018;28;20414;-65
2021/12/06 07:34:54;;;;;;;74.57;51.73;;;;;;;;;;4998687;28;20946;-64
2021/12/06 07:37:20;;;;;;;71.07;50.43;;;;;;;;;;5016617;28;20462;-64
2021/12/06 07:39:46;;;;;;;79.23;53.60;;;;;;;;;;5016626;28;20429;-64
2021/12/06 07:42:12;;;;;;;77.40;50.83;;;;;;;;;;4998604;28;20192;-64
2021/12/06 07:44:39;;;;;;;72.87;49.03;;;;;;;;;;5016335;28;20180;-64
2021/12/06 07:47:05;;;;;;;76.50;50.53;;;;;;;;;;4998213;28;20423;-64
2021/12/06 07:49:31;;;;;;;76.77;47.63;;;;;;;;;;4998306;28;20439;-64
2021/12/06 07:51:57;;;;;;;75.97;47.17;;;;;;;;;;5016454;28;20427;-64
2021/12/06 07:54:23;;;;;;;69.93;45.47;;;;;;;;;;5016544;28;20183;-65
2021/12/06 07:56:49;;;;;;;70.97;45.57;;;;;;;;;;5016378;28;20458;-64
2021/12/06 07:59:15;;;;;;;68.87;43.63;;;;;;;;;;5016069;28;20200;-64
2021/12/06 08:01:42;;;;;;;66.87;43.80;;;;;;;;;;4998668;28;20187;-64
2021/12/06 08:04:08;;;;;;;70.00;44.73;;;;;;;;;;5016398;28;20438;-64
2021/12/06 08:06:34;;;;;;;63.73;43.00;;;;;;;;;;5016187;28;20923;-64
2021/12/06 08:09:00;;;;;;;68.23;44.30;;;;;;;;;;5016055;28;20718;-64
2021/12/06 08:11:26;;;;;;;66.53;43.60;;;;;;;;;;5016162;28;20419;-64
2021/12/06 08:13:54;;;;;;;77.53;42.93;;;;;;;;;;4998602;28;20422;-64
2021/12/06 08:16:22;;;;;;;75.37;45.30;;;;;;;;;;5016041;28;20249;-64
2021/12/06 08:18:48;;;;;;;77.90;46.20;;;;;;;;;;5015852;28;20439;-64
2021/12/06 08:21:14;;;;;;;77.43;43.20;;;;;;;;;;4998355;28;20505;-64
2021/12/06 08:23:41;;;;;;;79.33;47.07;;;;;;;;;;5016094;28;20476;-64
2021/12/06 08:26:08;;;;;;;76.87;47.77;;;;;;;;;;5015982;28;20407;-64
2021/12/06 08:28:35;;;;;;;72.73;45.60;;;;;;;;;;5015946;28;20518;-64
2021/12/06 08:31:01;;;;;;;84.03;51.23;;;;;;;;;;5015551;28;20420;-65
2021/12/06 08:33:28;;;;;;;87.83;56.70;;;;;;;;;;5015649;28;20418;-64
2021/12/06 08:35:54;;;;;;;86.53;51.07;;;;;;;;;;4998299;28;20442;-66
2021/12/06 08:38:25;;;;;;;79.73;45.63;;;;;;;;;;4997860;28;20462;-65
2021/12/06 08:40:52;;;;;;;81.60;46.63;;;;;;;;;;4998273;28;20493;-64
2021/12/06 08:43:19;;;;;;;70.77;43.90;;;;;;;;;;4997936;28;20453;-64
2021/12/06 08:45:48;;;;;;;74.27;45.33;;;;;;;;;;5015623;28;20410;-64
2021/12/06 08:48:14;;;;;;;79.73;46.93;;;;;;;;;;5015414;28;20855;-64
2021/12/06 08:50:40;;;;;;;76.10;46.60;;;;;;;;;;4997810;28;20465;-63
2021/12/06 08:53:06;;;;;;;71.67;44.70;;;;;;;;;;5015183;28;20439;-65
2021/12/06 08:55:32;;;;;;;82.43;51.00;;;;;;;;;;5015510;28;20317;-64
2021/12/06 08:57:58;;;;;;;63.33;40.43;;;;;;;;;;5015725;28;20203;-65
2021/12/06 09:00:26;;;;;;;64.80;37.83;;;;;;;;;;4997468;28;20439;-65
2021/12/06 09:02:52;;;;;;;66.17;39.13;;;;;;;;;;5026118;28;20411;-64
2021/12/06 09:05:18;;;;;;;71.50;39.57;;;;;;;;;;5031468;28;20437;-65
2021/12/06 09:07:44;;;;;;;80.53;46.90;;;;;;;;;;5015029;28;20427;-64
2021/12/06 09:10:12;;;;;;;77.10;47.57;;;;;;;;;;5033803;28;20462;-64
2021/12/06 09:12:38;;;;;;;78.17;47.53;;;;;;;;;;5021047;28;20660;-64
2021/12/06 09:15:07;;;;;;;69.50;43.47;;;;;;;;;;4997822;28;20412;-64
2021/12/06 09:17:33;;;;;;;66.10;42.03;;;;;;;;;;5015623;28;20962;-63
2021/12/06 09:19:59;;;;;;;66.10;42.23;;;;;;;;;;5014680;28;20969;-64
2021/12/06 09:22:25;;;;;;;78.53;40.87;;;;;;;;;;4996844;28;20842;-64
2021/12/06 09:24:51;;;;;;;59.73;36.40;;;;;;;;;;5014532;28;20594;-65
2021/12/06 09:27:18;;;;;;;60.43;34.63;;;;;;;;;;5014522;28;20187;-64
2021/12/06 09:29:44;;;;;;;53.27;35.37;;;;;;;;;;5013912;28;20439;-65
2021/12/06 09:32:12;;;;;;;55.83;34.33;;;;;;;;;;5014285;28;20847;-64
2021/12/06 09:34:40;;;;;;;51.27;31.10;;;;;;;;;;4996552;28;20469;-64
2021/12/06 09:37:07;;;;;;;45.93;29.40;;;;;;;;;;5014041;28;20455;-65
2021/12/06 09:39:33;;;;;;;44.33;27.87;;;;;;;;;;5014223;28;20435;-64
2021/12/06 09:42:00;;;;;;;41.13;27.07;;;;;;;;;;5014499;28;20439;-66
2021/12/06 09:44:26;;;;;;;41.80;27.73;;;;;;;;;;4996362;28;20407;-65
2021/12/06 09:46:52;;;;;;;44.77;28.30;;;;;;;;;;4996241;28;20414;-65
2021/12/06 09:49:20;;;;;;;42.57;27.70;;;;;;;;;;5014041;28;20210;-64
2021/12/06 09:51:55;;;;;;;41.60;27.03;;;;;;;;;;5014336;28;20415;-65
2021/12/06 09:54:24;;;;;;;45.07;28.83;;;;;;;;;;4996283;28;20413;-64
2021/12/06 09:56:50;;;;;;;43.60;27.87;;;;;;;;;;5013718;28;20458;-64
2021/12/06 09:59:19;;;;;;;45.53;27.87;;;;;;;;;;4996299;28;20447;-64
2021/12/06 10:01:50;;;;;;;55.00;31.00;;;;;;;;;;5014523;28;20412;-64
2021/12/06 10:04:16;;;;;;;78.87;38.83;;;;;;;;;;5014107;28;20395;-64
2021/12/06 10:06:44;;;;;;;83.10;39.27;;;;;;;;;;5014077;28;20486;-64
2021/12/06 10:09:11;;;;;;;92.63;43.33;;;;;;;;;;5013574;28;20556;-65
2021/12/06 10:11:37;;;;;;;106.43;46.33;;;;;;;;;;5016618;28;20786;-64
2021/12/06 10:14:03;;;;;;;122.73;49.73;;;;;;;;;;4997740;28;20179;-64
2021/12/06 10:16:29;;;;;;;129.50;50.07;;;;;;;;;;5014682;28;20545;-64
2021/12/06 10:18:56;;;;;;;134.33;49.40;;;;;;;;;;5013641;28;20271;-64
2021/12/06 10:21:24;;;;;;;111.33;47.83;;;;;;;;;;5013443;28;20983;-64
2021/12/06 10:23:50;;;;;;;124.73;52.80;;;;;;;;;;4995857;28;20942;-65
2021/12/06 10:26:17;;;;;;;117.00;50.10;;;;;;;;;;4995683;28;20176;-64
2021/12/06 10:28:43;;;;;;;108.20;49.63;;;;;;;;;;5013370;28;20427;-64
2021/12/06 10:31:11;;;;;;;120.20;49.00;;;;;;;;;;5013457;28;20168;-64
2021/12/06 10:33:38;;;;;;;110.90;49.00;;;;;;;;;;5016955;28;20179;-65
2021/12/06 10:36:06;;;;;;;122.70;51.47;;;;;;;;;;5016985;28;20406;-65
2021/12/06 10:38:34;;;;;;;116.90;50.30;;;;;;;;;;4999136;28;20278;-64
2021/12/06 10:41:05;;;;;;;114.03;48.03;;;;;;;;;;5017000;28;20176;-64
2021/12/06 10:43:31;;;;;;;118.63;49.67;;;;;;;;;;5017405;28;20187;-65
2021/12/06 10:45:58;;;;;;;108.70;46.53;;;;;;;;;;4999294;28;20556;-65
2021/12/06 10:48:26;;;;;;;105.97;46.50;;;;;;;;;;4998979;28;20184;-64
2021/12/06 10:50:52;;;;;;;92.17;43.07;;;;;;;;;;5017162;28;20184;-64
2021/12/06 10:53:19;;;;;;;106.03;41.90;;;;;;;;;;5016686;28;20179;-64
2021/12/06 10:55:46;;;;;;;76.20;40.57;;;;;;;;;;4999250;28;20184;-65
2021/12/06 10:58:14;;;;;;;93.60;38.30;;;;;;;;;;5016970;28;20696;-64
2021/12/06 11:00:42;;;;;;;81.93;39.57;;;;;;;;;;5016659;28;20180;-64
2021/12/06 11:03:40;;;;;;;80.97;39.30;;;;;;;;;;5016611;28;20406;-64
2021/12/06 11:06:13;;;;;;;73.87;37.57;;;;;;;;;;5000934;28;20423;-64
2021/12/06 11:08:40;;;;;;;89.00;37.27;;;;;;;;;;5016486;28;20462;-64
2021/12/06 11:11:08;;;;;;;79.67;38.50;;;;;;;;;;4999260;28;20192;-64
2021/12/06 11:13:39;;;;;;;78.43;35.80;;;;;;;;;;4999101;28;20183;-64
2021/12/06 11:16:05;;;;;;;72.07;36.63;;;;;;;;;;4999489;28;20215;-64
2021/12/06 11:18:31;;;;;;;81.10;35.30;;;;;;;;;;5016862;28;20497;-64
2021/12/06 11:20:57;;;;;;;73.10;36.20;;;;;;;;;;5016394;28;20255;-64
2021/12/06 11:23:23;;;;;;;66.17;35.03;;;;;;;;;;4998735;28;20542;-64
2021/12/06 11:25:57;;;;;;;73.23;37.23;;;;;;;;;;5016398;28;20469;-64
2021/12/06 11:28:24;;;;;;;69.87;37.47;;;;;;;;;;5016556;28;20561;-64
2021/12/06 11:30:57;;;;;;;63.97;33.30;;;;;;;;;;5016489;28;20507;-64
2021/12/06 11:33:27;;;;;;;63.33;35.97;;;;;;;;;;5016278;28;20411;-64
2021/12/06 11:35:53;;;;;;;71.60;36.93;;;;;;;;;;4998877;28;20427;-64
2021/12/06 11:38:19;;;;;;;86.53;41.30;;;;;;;;;;4998437;28;20470;-64
2021/12/06 11:40:45;;;;;;;69.07;38.33;;;;;;;;;;4998771;28;20180;-64
2021/12/06 11:43:13;;;;;;;75.47;39.63;;;;;;;;;;5015635;28;20511;-64
2021/12/06 11:45:48;;;;;;;66.13;35.53;;;;;;;;;;5015743;28;20184;-64
2021/12/06 11:48:19;;;;;;;71.10;40.17;;;;;;;;;;5016113;28;20167;-64
2021/12/06 11:50:53;;;;;;;66.57;35.20;;;;;;;;;;4998681;28;20477;-64
2021/12/06 11:53:21;;;;;;;67.17;35.20;;;;;;;;;;4998278;28;20437;-64
2021/12/06 11:55:51;;;;;;;62.03;33.63;;;;;;;;;;5015716;28;20548;-64
2021/12/06 11:58:37;;;;;;;73.53;35.07;;;;;;;;;;5015717;28;20533;-64
2021/12/06 12:01:03;;;;;;;72.83;36.97;;;;;;;;;;4998400;28;20188;-64
2021/12/06 12:03:31;;;;;;;66.53;35.53;;;;;;;;;;5015968;28;20648;-64
2021/12/06 12:05:57;;;;;;;73.03;36.80;;;;;;;;;;5015582;28;20251;-64
2021/12/06 12:08:23;;;;;;;72.80;37.70;;;;;;;;;;5015089;28;20506;-65
2021/12/06 12:10:51;;;;;;;70.90;38.07;;;;;;;;;;5015521;28;20176;-64
2021/12/06 12:13:29;;;;;;;69.80;36.70;;;;;;;;;;5015199;28;20191;-64
2021/12/06 12:15:57;;;;;;;79.57;40.07;;;;;;;;;;5015136;28;20565;-65
2021/12/06 12:18:23;;;;;;;68.67;36.93;;;;;;;;;;5015121;28;20982;-65
2021/12/06 12:20:50;;;;;;;73.70;39.57;;;;;;;;;;5015600;28;20419;-64
2021/12/06 12:23:16;;;;;;;68.47;38.37;;;;;;;;;;5015258;28;20493;-64
2021/12/06 12:26:00;;;;;;;51.67;28.83;;;;;;;;;;5017505;28;20423;-64
2021/12/06 12:28:35;;;;;;;56.50;28.97;;;;;;;;;;5015876;28;20521;-64
2021/12/06 12:31:02;;;;;;;47.93;26.93;;;;;;;;;;5014849;28;20190;-65
2021/12/06 12:33:28;;;;;;;50.63;26.90;;;;;;;;;;4997303;28;20478;-64
2021/12/06 12:35:57;;;;;;;49.87;24.77;;;;;;;;;;4997306;28;20419;-64
2021/12/06 12:38:25;;;;;;;54.00;29.40;;;;;;;;;;5015279;28;20485;-64
2021/12/06 12:40:58;;;;;;;46.97;26.63;;;;;;;;;;4998013;28;20430;-64
2021/12/06 12:43:26;;;;;;;46.00;25.50;;;;;;;;;;5015381;28;20826;-64
2021/12/06 12:45:56;;;;;;;50.40;26.77;;;;;;;;;;5015063;28;20184;-64
2021/12/06 12:48:25;;;;;;;47.57;27.47;;;;;;;;;;5015517;28;20421;-64
2021/12/06 12:51:12;;;;;;;52.67;26.27;;;;;;;;;;5014955;28;20411;-65
2021/12/06 12:53:55;;;;;;;47.63;26.53;;;;;;;;;;4997933;28;20422;-64
2021/12/06 12:56:26;;;;;;;46.33;26.33;;;;;;;;;;4997240;28;20188;-64
2021/12/06 12:58:53;;;;;;;41.23;23.97;;;;;;;;;;4997251;28;20445;-64
2021/12/06 13:01:20;;;;;;;47.03;26.17;;;;;;;;;;5015176;28;20433;-64
2021/12/06 13:03:57;;;;;;;38.53;23.97;;;;;;;;;;4997162;28;20454;-64
2021/12/06 13:06:26;;;;;;;43.20;23.10;;;;;;;;;;4996866;28;20176;-64
2021/12/06 13:08:55;;;;;;;47.67;25.00;;;;;;;;;;5039285;23;20306;-61
2021/12/06 13:11:23;;;;;;;41.30;24.20;;;;;;;;;;5013380;28;20225;-62
2021/12/06 13:13:51;;;;;;;39.90;23.63;;;;;;;;;;5014327;28;20418;-62
2021/12/06 13:16:29;;;;;;;37.90;23.67;;;;;;;;;;5014566;28;20164;-61
2021/12/06 13:19:25;;;;;;;42.07;24.70;;;;;;;;;;5014477;28;20957;-61
2021/12/06 13:21:56;;;;;;;42.57;26.83;;;;;;;;;;5014939;28;20883;-62
2021/12/06 13:24:22;;;;;;;42.63;27.33;;;;;;;;;;5013059;28;20411;-61
2021/12/06 13:26:50;;;;;;;43.00;26.03;;;;;;;;;;5012912;28;20190;-61
2021/12/06 13:29:17;;;;;;;42.60;25.57;;;;;;;;;;5014474;28;20218;-62
2021/12/06 13:31:44;;;;;;;42.30;25.27;;;;;;;;;;5014082;28;20191;-62
2021/12/06 13:34:36;;;;;;;40.53;23.83;;;;;;;;;;5012846;28;20426;-61
2021/12/06 13:37:03;;;;;;;37.10;23.63;;;;;;;;;;5011451;28;20222;-61
2021/12/06 13:39:35;;;;;;;36.23;22.67;;;;;;;;;;5012720;28;20207;-61
2021/12/06 13:42:02;;;;;;;37.37;22.73;;;;;;;;;;5014050;28;20183;-61
2021/12/06 13:44:44;;;;;;;36.70;22.73;;;;;;;;;;5012684;28;20454;-61
2021/12/06 13:47:12;;;;;;;35.70;23.33;;;;;;;;;;5013962;28;20180;-61
2021/12/06 13:49:51;;;;;;;39.23;24.83;;;;;;;;;;5014176;28;20485;-62
2021/12/06 13:52:28;;;;;;;37.63;24.40;;;;;;;;;;5012510;28;20233;-61
2021/12/06 13:54:54;;;;;;;41.27;26.17;;;;;;;;;;5012704;28;20180;-61
2021/12/06 13:57:21;;;;;;;41.43;27.20;;;;;;;;;;5013983;28;20286;-62
2021/12/06 13:59:55;;;;;;;46.50;26.90;;;;;;;;;;5013911;28;20196;-61
2021/12/06 14:02:26;;;;;;;39.80;25.40;;;;;;;;;;5014369;28;20165;-61
2021/12/06 14:04:52;;;;;;;40.97;26.43;;;;;;;;;;5012761;28;20526;-61
2021/12/06 14:07:19;;;;;;;37.87;22.83;;;;;;;;;;5015755;28;20430;-61
2021/12/06 14:09:47;;;;;;;38.03;22.27;;;;;;;;;;5016475;28;20225;-61
2021/12/06 14:12:18;;;;;;;31.83;21.87;;;;;;;;;;5018230;28;20179;-61
2021/12/06 14:14:48;;;;;;;29.63;20.40;;;;;;;;;;5017936;28;20686;-61
2021/12/06 14:17:15;;;;;;;30.90;20.93;;;;;;;;;;5027702;28;20625;-62
2021/12/06 14:19:42;;;;;;;31.87;20.77;;;;;;;;;;5024449;28;20569;-61
2021/12/06 14:22:09;;;;;;;33.00;21.07;;;;;;;;;;5021128;28;20406;-62
2021/12/06 14:24:36;;;;;;;34.30;22.00;;;;;;;;;;5024049;28;20176;-62
2021/12/06 14:27:03;;;;;;;32.03;22.00;;;;;;;;;;5016812;28;20209;-61
2021/12/06 14:29:30;;;;;;;32.27;21.20;;;;;;;;;;5017297;28;20208;-62
2021/12/06 14:31:57;;;;;;;33.40;22.53;;;;;;;;;;5016344;28;20184;-61
2021/12/06 14:34:24;;;;;;;34.43;20.90;;;;;;;;;;5017259;28;20505;-61
2021/12/06 14:36:50;;;;;;;32.33;21.73;;;;;;;;;;5015743;28;20465;-61